sensor_id;sensor_type;location;lat;lon;timestamp;pressure;altitude;pressure_sealevel;temperature;humidity
62800;BME280;48842;51.046;13.796;2023-06-01T00:02:08;100654.75;;;18.87;nan
62800;BME280;48842;51.046;13.796;2023-06-01T00:04:34;100658.34;;;18.82;nan
62800;BME280;48842;51.046;13.796;2023-06-01T00:06:59;100662.91;;;18.77;nan
62800;BME280;48842;51.046;13.796;2023-06-01T00:09:26;100662.13;;;18.74;nan
62800;BME280;48842;51.046;13.796;2023-06-01T00:11:52;100659.59;;;18.69;nan
62800;BME280;48842;51.046;13.796;2023-06-01T00:14:17;100657.91;;;18.65;nan
62800;BME280;48842;51.046;13.796;2023-06-01T00:16:43;100657.06;;;18.63;nan
62800;BME280;48842;51.046;13.796;2023-06-01T00:19:10;100657.97;;;18.62;nan
62800;BME280;48842;51.046;13.796;2023-06-01T00:21:36;100647.41;;;18.60;nan
62800;BME280;48842;51.046;13.796;2023-06-01T00:24:02;100658.94;;;18.59;nan
62800;BME280;48842;51.046;13.796;2023-06-01T00:26:27;100654.59;;;18.55;nan
62800;BME280;48842;51.046;13.796;2023-06-01T00:28:54;100657.34;;;18.51;nan
62800;BME280;48842;51.046;13.796;2023-06-01T00:31:20;100650.38;;;18.46;nan
62800;BME280;48842;51.046;13.796;2023-06-01T00:33:45;100653.06;;;18.45;nan
62800;BME280;48842;51.046;13.796;2023-06-01T00:36:10;100654.94;;;18.41;nan
62800;BME280;48842;51.046;13.796;2023-06-01T00:38:35;100652.28;;;18.40;nan
62800;BME280;48842;51.046;13.796;2023-06-01T00:41:01;100645.31;;;18.37;nan
62800;BME280;48842;51.046;13.796;2023-06-01T00:43:26;100642.69;;;18.36;nan
62800;BME280;48842;51.046;13.796;2023-06-01T00:45:52;100646.25;;;18.35;nan
62800;BME280;48842;51.046;13.796;2023-06-01T00:48:18;100653.41;;;18.29;nan
62800;BME280;48842;51.046;13.796;2023-06-01T00:50:43;100651.75;;;18.25;nan
62800;BME280;48842;51.046;13.796;2023-06-01T00:53:17;100653.56;;;18.23;nan
62800;BME280;48842;51.046;13.796;2023-06-01T00:55:43;100650.09;;;18.21;nan
62800;BME280;48842;51.046;13.796;2023-06-01T00:58:08;100643.97;;;18.18;nan
62800;BME280;48842;51.046;13.796;2023-06-01T01:00:34;100647.53;;;18.17;nan
62800;BME280;48842;51.046;13.796;2023-06-01T01:02:59;100651.13;;;18.14;nan
62800;BME280;48842;51.046;13.796;2023-06-01T01:05:33;100653.84;;;18.11;nan
62800;BME280;48842;51.046;13.796;2023-06-01T01:08:18;100649.50;;;18.07;nan
62800;BME280;48842;51.046;13.796;2023-06-01T01:13:27;100659.41;;;17.99;nan
62800;BME280;48842;51.046;13.796;2023-06-01T01:16:23;100655.06;;;17.94;nan
62800;BME280;48842;51.046;13.796;2023-06-01T01:18:58;100650.75;;;17.90;nan
62800;BME280;48842;51.046;13.796;2023-06-01T01:21:30;100646.31;;;17.91;nan
62800;BME280;48842;51.046;13.796;2023-06-01T01:24:23;100656.06;;;17.90;nan
62800;BME280;48842;51.046;13.796;2023-06-01T01:27:17;100655.25;;;17.85;nan
62800;BME280;48842;51.046;13.796;2023-06-01T01:29:52;100652.72;;;17.79;nan
62800;BME280;48842;51.046;13.796;2023-06-01T01:32:19;100658.16;;;17.73;nan
62800;BME280;48842;51.046;13.796;2023-06-01T01:34:45;100650.28;;;17.70;nan
62800;BME280;48842;51.046;13.796;2023-06-01T01:37:13;100656.53;;;17.66;nan
62800;BME280;48842;51.046;13.796;2023-06-01T01:39:38;100651.34;;;17.61;nan
62800;BME280;48842;51.046;13.796;2023-06-01T01:42:03;100657.59;;;17.57;nan
62800;BME280;48842;51.046;13.796;2023-06-01T01:44:29;100649.75;;;17.51;nan
62800;BME280;48842;51.046;13.796;2023-06-01T01:47:02;100663.06;;;17.48;nan
62800;BME280;48842;51.046;13.796;2023-06-01T01:49:39;100660.47;;;17.44;nan
62800;BME280;48842;51.046;13.796;2023-06-01T01:52:23;100656.16;;;17.39;nan
62800;BME280;48842;51.046;13.796;2023-06-01T01:54:50;100646.53;;;17.36;nan
62800;BME280;48842;51.046;13.796;2023-06-01T01:57:17;100642.97;;;17.36;nan
62800;BME280;48842;51.046;13.796;2023-06-01T01:59:43;100640.38;;;17.34;nan
62800;BME280;48842;51.046;13.796;2023-06-01T02:02:10;100638.63;;;17.32;nan
62800;BME280;48842;51.046;13.796;2023-06-01T02:04:40;100639.56;;;17.31;nan
62800;BME280;48842;51.046;13.796;2023-06-01T02:07:06;100635.16;;;17.30;nan
62800;BME280;48842;51.046;13.796;2023-06-01T02:09:31;100636.06;;;17.28;nan
62800;BME280;48842;51.046;13.796;2023-06-01T02:11:57;100630.81;;;17.25;nan
62800;BME280;48842;51.046;13.796;2023-06-01T02:14:22;100633.50;;;17.24;nan
62800;BME280;48842;51.046;13.796;2023-06-01T02:16:47;100637.03;;;17.23;nan
62800;BME280;48842;51.046;13.796;2023-06-01T02:19:12;100630.94;;;17.19;nan
62800;BME280;48842;51.046;13.796;2023-06-01T02:21:41;100632.75;;;17.17;nan
62800;BME280;48842;51.046;13.796;2023-06-01T02:24:07;100635.44;;;17.14;nan
62800;BME280;48842;51.046;13.796;2023-06-01T02:26:34;100640.84;;;17.08;nan
62800;BME280;48842;51.046;13.796;2023-06-01T02:28:59;100633.03;;;17.02;nan
62800;BME280;48842;51.046;13.796;2023-06-01T02:31:24;100637.50;;;16.98;nan
62800;BME280;48842;51.046;13.796;2023-06-01T02:33:50;100626.97;;;16.95;nan
62800;BME280;48842;51.046;13.796;2023-06-01T02:36:15;100625.25;;;16.92;nan
62800;BME280;48842;51.046;13.796;2023-06-01T02:38:41;100620.88;;;16.90;nan
62800;BME280;48842;51.046;13.796;2023-06-01T02:41:07;100621.81;;;16.87;nan
62800;BME280;48842;51.046;13.796;2023-06-01T02:43:34;100613.06;;;16.82;nan
62800;BME280;48842;51.046;13.796;2023-06-01T02:46:00;100617.53;;;16.77;nan
62800;BME280;48842;51.046;13.796;2023-06-01T02:48:25;100607.91;;;16.73;nan
62800;BME280;48842;51.046;13.796;2023-06-01T02:50:50;100609.75;;;16.69;nan
62800;BME280;48842;51.046;13.796;2023-06-01T02:53:16;100607.13;;;16.68;nan
62800;BME280;48842;51.046;13.796;2023-06-01T02:55:41;100606.22;;;16.69;nan
62800;BME280;48842;51.046;13.796;2023-06-01T02:58:06;100613.22;;;16.71;nan
62800;BME280;48842;51.046;13.796;2023-06-01T03:00:37;100599.97;;;16.73;nan
62800;BME280;48842;51.046;13.796;2023-06-01T03:03:03;100604.41;;;16.72;nan
62800;BME280;48842;51.046;13.796;2023-06-01T03:05:28;100600.88;;;16.70;nan
62800;BME280;48842;51.046;13.796;2023-06-01T03:07:55;100600.91;;;16.69;nan
62800;BME280;48842;51.046;13.796;2023-06-01T03:10:20;100605.38;;;16.67;nan
62800;BME280;48842;51.046;13.796;2023-06-01T03:12:45;100605.41;;;16.65;nan
62800;BME280;48842;51.046;13.796;2023-06-01T03:15:10;100607.22;;;16.62;nan
62800;BME280;48842;51.046;13.796;2023-06-01T03:17:36;100620.44;;;16.62;nan
62800;BME280;48842;51.046;13.796;2023-06-01T03:20:01;100619.59;;;16.60;nan
62800;BME280;48842;51.046;13.796;2023-06-01T03:22:29;100616.13;;;16.57;nan
62800;BME280;48842;51.046;13.796;2023-06-01T03:24:54;100617.91;;;16.55;nan
62800;BME280;48842;51.046;13.796;2023-06-01T03:27:22;100622.34;;;16.53;nan
62800;BME280;48842;51.046;13.796;2023-06-01T03:29:47;100626.75;;;16.54;nan
62800;BME280;48842;51.046;13.796;2023-06-01T03:32:13;100621.47;;;16.54;nan
62800;BME280;48842;51.046;13.796;2023-06-01T03:34:38;100622.31;;;16.55;nan
62800;BME280;48842;51.046;13.796;2023-06-01T03:37:05;100611.75;;;16.55;nan
62800;BME280;48842;51.046;13.796;2023-06-01T03:39:32;100620.53;;;16.55;nan
62800;BME280;48842;51.046;13.796;2023-06-01T03:41:59;100626.78;;;16.53;nan
62800;BME280;48842;51.046;13.796;2023-06-01T03:44:24;100624.16;;;16.50;nan
62800;BME280;48842;51.046;13.796;2023-06-01T03:46:49;100625.09;;;16.47;nan
62800;BME280;48842;51.046;13.796;2023-06-01T03:49:15;100627.75;;;16.47;nan
62800;BME280;48842;51.046;13.796;2023-06-01T03:51:40;100628.63;;;16.46;nan
62800;BME280;48842;51.046;13.796;2023-06-01T03:54:05;100624.22;;;16.45;nan
62800;BME280;48842;51.046;13.796;2023-06-01T03:56:31;100621.59;;;16.45;nan
62800;BME280;48842;51.046;13.796;2023-06-01T03:58:56;100612.81;;;16.43;nan
62800;BME280;48842;51.046;13.796;2023-06-01T04:01:21;100621.59;;;16.45;nan
62800;BME280;48842;51.046;13.796;2023-06-01T04:03:47;100622.47;;;16.46;nan
62800;BME280;48842;51.046;13.796;2023-06-01T04:06:13;100622.44;;;16.49;nan
62800;BME280;48842;51.046;13.796;2023-06-01T04:08:42;100616.19;;;16.53;nan
62800;BME280;48842;51.046;13.796;2023-06-01T04:11:13;100616.16;;;16.54;nan
62800;BME280;48842;51.046;13.796;2023-06-01T04:13:38;100620.50;;;16.57;nan
62800;BME280;48842;51.046;13.796;2023-06-01T04:16:04;100623.06;;;16.62;nan
62800;BME280;48842;51.046;13.796;2023-06-01T04:18:29;100622.13;;;16.66;nan
62800;BME280;48842;51.046;13.796;2023-06-01T04:20:55;100628.25;;;16.71;nan
62800;BME280;48842;51.046;13.796;2023-06-01T04:23:22;100628.25;;;16.71;nan
62800;BME280;48842;51.046;13.796;2023-06-01T04:25:48;100634.41;;;16.70;nan
62800;BME280;48842;51.046;13.796;2023-06-01T04:28:16;100633.56;;;16.69;nan
62800;BME280;48842;51.046;13.796;2023-06-01T04:30:41;100628.25;;;16.71;nan
62800;BME280;48842;51.046;13.796;2023-06-01T04:33:09;100629.03;;;16.74;nan
62800;BME280;48842;51.046;13.796;2023-06-01T04:35:35;100629.88;;;16.78;nan
62800;BME280;48842;51.046;13.796;2023-06-01T04:38:02;100625.44;;;16.79;nan
62800;BME280;48842;51.046;13.796;2023-06-01T04:40:27;100628.97;;;16.79;nan
62800;BME280;48842;51.046;13.796;2023-06-01T04:42:53;100632.47;;;16.81;nan
62800;BME280;48842;51.046;13.796;2023-06-01T04:45:21;100624.53;;;16.81;nan
62800;BME280;48842;51.046;13.796;2023-06-01T04:47:47;100631.59;;;16.82;nan
62800;BME280;48842;51.046;13.796;2023-06-01T04:50:13;100630.63;;;16.85;nan
62800;BME280;48842;51.046;13.796;2023-06-01T04:52:41;100623.59;;;16.85;nan
62800;BME280;48842;51.046;13.796;2023-06-01T04:55:08;100622.66;;;16.86;nan
62800;BME280;48842;51.046;13.796;2023-06-01T04:57:34;100633.25;;;16.88;nan
62800;BME280;48842;51.046;13.796;2023-06-01T05:00:09;100622.63;;;16.91;nan
62800;BME280;48842;51.046;13.796;2023-06-01T05:02:42;100626.94;;;16.97;nan
62800;BME280;48842;51.046;13.796;2023-06-01T05:05:11;100619.81;;;17.00;nan
62800;BME280;48842;51.046;13.796;2023-06-01T05:07:38;100607.34;;;17.05;nan
62800;BME280;48842;51.046;13.796;2023-06-01T05:10:05;100616.06;;;17.12;nan
62800;BME280;48842;51.046;13.796;2023-06-01T05:12:32;100608.94;;;17.17;nan
62800;BME280;48842;51.046;13.796;2023-06-01T05:14:57;100609.69;;;17.22;nan
62800;BME280;48842;51.046;13.796;2023-06-01T05:17:22;100608.78;;;17.25;nan
62800;BME280;48842;51.046;13.796;2023-06-01T05:19:47;100608.69;;;17.30;nan
62800;BME280;48842;51.046;13.796;2023-06-01T05:22:13;100612.94;;;17.37;nan
62800;BME280;48842;51.046;13.796;2023-06-01T05:24:38;100605.78;;;17.42;nan
62800;BME280;48842;51.046;13.796;2023-06-01T05:27:04;100611.88;;;17.47;nan
62800;BME280;48842;51.046;13.796;2023-06-01T05:29:29;100612.66;;;17.52;nan
62800;BME280;48842;51.046;13.796;2023-06-01T05:31:55;100609.88;;;17.58;nan
62800;BME280;48842;51.046;13.796;2023-06-01T05:34:20;100612.31;;;17.68;nan
62800;BME280;48842;51.046;13.796;2023-06-01T05:36:46;100613.94;;;17.75;nan
62800;BME280;48842;51.046;13.796;2023-06-01T05:39:11;100605.88;;;17.79;nan
62800;BME280;48842;51.046;13.796;2023-06-01T05:41:36;100613.69;;;17.87;nan
62800;BME280;48842;51.046;13.796;2023-06-01T05:44:01;100612.69;;;17.93;nan
62800;BME280;48842;51.046;13.796;2023-06-01T05:46:27;100611.63;;;18.02;nan
62800;BME280;48842;51.046;13.796;2023-06-01T05:48:52;100617.63;;;18.10;nan
62800;BME280;48842;51.046;13.796;2023-06-01T05:51:17;100618.41;;;18.15;nan
62800;BME280;48842;51.046;13.796;2023-06-01T05:53:43;100612.97;;;18.21;nan
62800;BME280;48842;51.046;13.796;2023-06-01T05:56:08;100610.13;;;18.29;nan
62800;BME280;48842;51.046;13.796;2023-06-01T05:58:33;100609.94;;;18.37;nan
62800;BME280;48842;51.046;13.796;2023-06-01T06:00:58;100608.00;;;18.43;nan
62800;BME280;48842;51.046;13.796;2023-06-01T06:03:24;100610.47;;;18.51;nan
62800;BME280;48842;51.046;13.796;2023-06-01T06:05:49;100605.94;;;18.56;nan
62800;BME280;48842;51.046;13.796;2023-06-01T06:08:14;100604.88;;;18.63;nan
62800;BME280;48842;51.046;13.796;2023-06-01T06:10:40;100601.13;;;18.72;nan
62800;BME280;48842;51.046;13.796;2023-06-01T06:13:06;100597.41;;;18.79;nan
62800;BME280;48842;51.046;13.796;2023-06-01T06:15:31;100591.91;;;18.87;nan
62800;BME280;48842;51.046;13.796;2023-06-01T06:17:56;100586.34;;;18.96;nan
62800;BME280;48842;51.046;13.796;2023-06-01T06:20:22;100589.66;;;19.05;nan
62800;BME280;48842;51.046;13.796;2023-06-01T06:22:51;100588.63;;;19.10;nan
62800;BME280;48842;51.046;13.796;2023-06-01T06:25:16;100584.75;;;19.22;nan
62800;BME280;48842;51.046;13.796;2023-06-01T06:27:41;100581.84;;;19.31;nan
62800;BME280;48842;51.046;13.796;2023-06-01T06:30:07;100578.00;;;19.42;nan
62800;BME280;48842;51.046;13.796;2023-06-01T06:32:32;100579.47;;;19.52;nan
62800;BME280;48842;51.046;13.796;2023-06-01T06:34:58;100582.97;;;19.54;nan
62800;BME280;48842;51.046;13.796;2023-06-01T06:37:23;100578.38;;;19.59;nan
62800;BME280;48842;51.046;13.796;2023-06-01T06:39:48;100569.41;;;19.63;nan
62800;BME280;48842;51.046;13.796;2023-06-01T06:42:13;100571.97;;;19.66;nan
62800;BME280;48842;51.046;13.796;2023-06-01T06:44:39;100572.84;;;19.67;nan
62800;BME280;48842;51.046;13.796;2023-06-01T06:47:04;100577.94;;;19.75;nan
62800;BME280;48842;51.046;13.796;2023-06-01T06:49:30;100581.28;;;19.81;nan
62800;BME280;48842;51.046;13.796;2023-06-01T06:51:55;100578.53;;;19.86;nan
62800;BME280;48842;51.046;13.796;2023-06-01T06:54:21;100575.81;;;19.87;nan
62800;BME280;48842;51.046;13.796;2023-06-01T06:56:46;100577.63;;;19.85;nan
62800;BME280;48842;51.046;13.796;2023-06-01T06:59:12;100576.72;;;19.86;nan
62800;BME280;48842;51.046;13.796;2023-06-01T07:01:39;100572.13;;;19.92;nan
62800;BME280;48842;51.046;13.796;2023-06-01T07:04:04;100576.25;;;20.02;nan
62800;BME280;48842;51.046;13.796;2023-06-01T07:06:32;100573.34;;;20.10;nan
62800;BME280;48842;51.046;13.796;2023-06-01T07:08:58;100567.88;;;20.14;nan
62800;BME280;48842;51.046;13.796;2023-06-01T07:11:24;100570.28;;;20.22;nan
62800;BME280;48842;51.046;13.796;2023-06-01T07:13:51;100564.16;;;20.20;nan
62800;BME280;48842;51.046;13.796;2023-06-01T07:16:17;100561.38;;;20.23;nan
62800;BME280;48842;51.046;13.796;2023-06-01T07:18:42;100565.78;;;20.24;nan
62800;BME280;48842;51.046;13.796;2023-06-01T07:21:07;100564.94;;;20.22;nan
62800;BME280;48842;51.046;13.796;2023-06-01T07:23:32;100562.13;;;20.27;nan
62800;BME280;48842;51.046;13.796;2023-06-01T07:25:58;100561.16;;;20.29;nan
62800;BME280;48842;51.046;13.796;2023-06-01T07:28:23;100554.84;;;20.33;nan
62800;BME280;48842;51.046;13.796;2023-06-01T07:30:51;100554.63;;;20.39;nan
62800;BME280;48842;51.046;13.796;2023-06-01T07:33:17;100556.16;;;20.47;nan
62800;BME280;48842;51.046;13.796;2023-06-01T07:35:43;100555.94;;;20.53;nan
62800;BME280;48842;51.046;13.796;2023-06-01T07:38:08;100547.97;;;20.53;nan
62800;BME280;48842;51.046;13.796;2023-06-01T07:40:34;100540.88;;;20.53;nan
62800;BME280;48842;51.046;13.796;2023-06-01T07:42:59;100540.66;;;20.60;nan
62800;BME280;48842;51.046;13.796;2023-06-01T07:45:25;100544.00;;;20.66;nan
62800;BME280;48842;51.046;13.796;2023-06-01T07:47:50;100542.91;;;20.72;nan
62800;BME280;48842;51.046;13.796;2023-06-01T07:50:16;100547.38;;;20.71;nan
62800;BME280;48842;51.046;13.796;2023-06-01T07:52:41;100549.38;;;20.63;nan
62800;BME280;48842;51.046;13.796;2023-06-01T07:55:07;100550.38;;;20.61;nan
62800;BME280;48842;51.046;13.796;2023-06-01T07:57:34;100547.78;;;20.59;nan
62800;BME280;48842;51.046;13.796;2023-06-01T07:59:59;100551.63;;;20.50;nan
62800;BME280;48842;51.046;13.796;2023-06-01T08:02:24;100547.22;;;20.49;nan
62800;BME280;48842;51.046;13.796;2023-06-01T08:04:51;100544.28;;;20.57;nan
62800;BME280;48842;51.046;13.796;2023-06-01T08:07:17;100553.00;;;20.62;nan
62800;BME280;48842;51.046;13.796;2023-06-01T08:09:43;100549.50;;;20.60;nan
62800;BME280;48842;51.046;13.796;2023-06-01T08:12:09;100545.00;;;20.62;nan
62800;BME280;48842;51.046;13.796;2023-06-01T08:14:36;100545.72;;;20.67;nan
62800;BME280;48842;51.046;13.796;2023-06-01T08:17:03;100539.16;;;20.78;nan
62800;BME280;48842;51.046;13.796;2023-06-01T08:19:28;100529.00;;;20.89;nan
62800;BME280;48842;51.046;13.796;2023-06-01T08:21:53;100531.44;;;20.95;nan
62800;BME280;48842;51.046;13.796;2023-06-01T08:24:20;100528.56;;;21.01;nan
62800;BME280;48842;51.046;13.796;2023-06-01T08:26:48;100529.97;;;21.12;nan
62800;BME280;48842;51.046;13.796;2023-06-01T08:29:13;100527.75;;;21.23;nan
62800;BME280;48842;51.046;13.796;2023-06-01T08:31:38;100520.22;;;21.34;nan
62800;BME280;48842;51.046;13.796;2023-06-01T08:34:03;100519.78;;;21.47;nan
62800;BME280;48842;51.046;13.796;2023-06-01T08:36:29;100519.31;;;21.59;nan
62800;BME280;48842;51.046;13.796;2023-06-01T08:38:54;100511.91;;;21.67;nan
62800;BME280;48842;51.046;13.796;2023-06-01T08:41:30;100504.44;;;21.75;nan
62800;BME280;48842;51.046;13.796;2023-06-01T08:44:02;100514.19;;;21.76;nan
62800;BME280;48842;51.046;13.796;2023-06-01T08:46:31;100508.88;;;21.76;nan
62800;BME280;48842;51.046;13.796;2023-06-01T08:48:57;100501.66;;;21.78;nan
62800;BME280;48842;51.046;13.796;2023-06-01T08:51:23;100503.16;;;21.86;nan
62800;BME280;48842;51.046;13.796;2023-06-01T08:53:49;100496.56;;;21.94;nan
62800;BME280;48842;51.046;13.796;2023-06-01T08:56:15;100502.53;;;22.01;nan
62800;BME280;48842;51.046;13.796;2023-06-01T08:58:41;100496.34;;;22.01;nan
62800;BME280;48842;51.046;13.796;2023-06-01T09:01:08;100501.47;;;22.05;nan
62800;BME280;48842;51.046;13.796;2023-06-01T09:03:34;100491.41;;;22.12;nan
62800;BME280;48842;51.046;13.796;2023-06-01T09:05:59;100492.88;;;22.19;nan
62800;BME280;48842;51.046;13.796;2023-06-01T09:08:25;100494.50;;;22.23;nan
62800;BME280;48842;51.046;13.796;2023-06-01T09:10:50;100488.25;;;22.24;nan
62800;BME280;48842;51.046;13.796;2023-06-01T09:13:34;100490.78;;;22.27;nan
62800;BME280;48842;51.046;13.796;2023-06-01T09:16:00;100487.13;;;22.30;nan
62800;BME280;48842;51.046;13.796;2023-06-01T09:18:25;100483.41;;;22.34;nan
62800;BME280;48842;51.046;13.796;2023-06-01T09:20:50;100480.94;;;22.28;nan
62800;BME280;48842;51.046;13.796;2023-06-01T09:23:25;100480.81;;;22.31;nan
62800;BME280;48842;51.046;13.796;2023-06-01T09:26:10;100473.59;;;22.35;nan
62800;BME280;48842;51.046;13.796;2023-06-01T09:31:40;100474.00;;;22.46;nan
62800;BME280;48842;51.046;13.796;2023-06-01T09:34:08;100472.88;;;22.52;nan
62800;BME280;48842;51.046;13.796;2023-06-01T09:36:34;100477.81;;;22.61;nan
62800;BME280;48842;51.046;13.796;2023-06-01T09:39:09;100470.19;;;22.72;nan
62800;BME280;48842;51.046;13.796;2023-06-01T09:41:55;100471.75;;;22.76;nan
62800;BME280;48842;51.046;13.796;2023-06-01T09:44:40;100470.63;;;22.82;nan
62800;BME280;48842;51.046;13.796;2023-06-01T09:47:10;100468.63;;;22.87;nan
62800;BME280;48842;51.046;13.796;2023-06-01T09:49:41;100470.94;;;22.95;nan
62800;BME280;48842;51.046;13.796;2023-06-01T09:54:37;100468.94;;;23.00;nan
62800;BME280;48842;51.046;13.796;2023-06-01T09:57:03;100456.22;;;23.05;nan
62800;BME280;48842;51.046;13.796;2023-06-01T09:59:30;100460.72;;;23.05;nan
62800;BME280;48842;51.046;13.796;2023-06-01T10:02:03;100463.06;;;23.12;nan
62800;BME280;48842;51.046;13.796;2023-06-01T10:04:29;100454.75;;;23.18;nan
62800;BME280;48842;51.046;13.796;2023-06-01T10:06:56;100445.56;;;23.24;nan
62800;BME280;48842;51.046;13.796;2023-06-01T10:09:23;100455.19;;;23.28;nan
62800;BME280;48842;51.046;13.796;2023-06-01T10:11:52;100438.91;;;23.33;nan
62800;BME280;48842;51.046;13.796;2023-06-01T10:14:19;100440.50;;;23.37;nan
62800;BME280;48842;51.046;13.796;2023-06-01T10:16:45;100437.59;;;23.42;nan
62800;BME280;48842;51.046;13.796;2023-06-01T10:19:13;100428.34;;;23.49;nan
62800;BME280;48842;51.046;13.796;2023-06-01T10:21:39;100436.97;;;23.56;nan
62800;BME280;48842;51.046;13.796;2023-06-01T10:24:06;100443.66;;;23.64;nan
62800;BME280;48842;51.046;13.796;2023-06-01T10:26:41;100440.75;;;23.69;nan
62800;BME280;48842;51.046;13.796;2023-06-01T10:29:07;100434.25;;;23.75;nan
62800;BME280;48842;51.046;13.796;2023-06-01T10:31:38;100438.44;;;23.80;nan
62800;BME280;48842;51.046;13.796;2023-06-01T10:34:05;100431.94;;;23.86;nan
62800;BME280;48842;51.046;13.796;2023-06-01T10:39:31;100431.03;;;23.85;nan
62800;BME280;48842;51.046;13.796;2023-06-01T10:41:58;100430.75;;;23.92;nan
62800;BME280;48842;51.046;13.796;2023-06-01T10:54:49;100422.19;;;24.02;nan
62800;BME280;48842;51.046;13.796;2023-06-01T10:57:19;100419.44;;;24.04;nan
62800;BME280;48842;51.046;13.796;2023-06-01T11:00:16;100411.56;;;24.01;nan
62800;BME280;48842;51.046;13.796;2023-06-01T11:02:56;100411.63;;;23.99;nan
62800;BME280;48842;51.046;13.796;2023-06-01T11:05:44;100411.00;;;24.12;nan
62800;BME280;48842;51.046;13.796;2023-06-01T11:13:16;100409.97;;;24.14;nan
62800;BME280;48842;51.046;13.796;2023-06-01T11:21:14;100403.81;;;24.30;nan
62800;BME280;48842;51.046;13.796;2023-06-01T11:23:45;100407.97;;;24.35;nan
62800;BME280;48842;51.046;13.796;2023-06-01T11:26:14;100394.66;;;24.34;nan
62800;BME280;48842;51.046;13.796;2023-06-01T11:28:41;100394.75;;;24.32;nan
62800;BME280;48842;51.046;13.796;2023-06-01T11:31:09;100391.22;;;24.32;nan
62800;BME280;48842;51.046;13.796;2023-06-01T11:33:38;100383.66;;;24.40;nan
62800;BME280;48842;51.046;13.796;2023-06-01T11:36:03;100379.53;;;24.50;nan
62800;BME280;48842;51.046;13.796;2023-06-01T11:38:35;100375.72;;;24.54;nan
62800;BME280;48842;51.046;13.796;2023-06-01T11:41:03;100371.88;;;24.60;nan
62800;BME280;48842;51.046;13.796;2023-06-01T11:43:30;100364.16;;;24.54;nan
62800;BME280;48842;51.046;13.796;2023-06-01T11:46:06;100363.97;;;24.57;nan
62800;BME280;48842;51.046;13.796;2023-06-01T11:48:33;100357.38;;;24.64;nan
62800;BME280;48842;51.046;13.796;2023-06-01T11:51:02;100361.53;;;24.70;nan
62800;BME280;48842;51.046;13.796;2023-06-01T11:53:29;100360.59;;;24.71;nan
62800;BME280;48842;51.046;13.796;2023-06-01T11:55:57;100351.09;;;24.81;nan
62800;BME280;48842;51.046;13.796;2023-06-01T11:58:27;100361.31;;;24.90;nan
62800;BME280;48842;51.046;13.796;2023-06-01T12:00:53;100347.38;;;25.00;nan
62800;BME280;48842;51.046;13.796;2023-06-01T12:03:19;100345.41;;;25.03;nan
62800;BME280;48842;51.046;13.796;2023-06-01T12:05:45;100348.16;;;25.02;nan
62800;BME280;48842;51.046;13.796;2023-06-01T12:08:15;100348.16;;;25.02;nan
62800;BME280;48842;51.046;13.796;2023-06-01T12:10:43;100341.78;;;25.04;nan
62800;BME280;48842;51.046;13.796;2023-06-01T12:13:09;100342.47;;;25.08;nan
62800;BME280;48842;51.046;13.796;2023-06-01T12:15:36;100337.09;;;25.08;nan
62800;BME280;48842;51.046;13.796;2023-06-01T12:18:01;100334.84;;;25.16;nan
62800;BME280;48842;51.046;13.796;2023-06-01T12:20:28;100333.88;;;25.17;nan
62800;BME280;48842;51.046;13.796;2023-06-01T12:22:53;100330.88;;;25.23;nan
62800;BME280;48842;51.046;13.796;2023-06-01T12:25:21;100326.19;;;25.27;nan
62800;BME280;48842;51.046;13.796;2023-06-01T12:28:04;100333.13;;;25.31;nan
62800;BME280;48842;51.046;13.796;2023-06-01T12:30:30;100332.59;;;25.40;nan
62800;BME280;48842;51.046;13.796;2023-06-01T12:32:55;100331.69;;;25.56;nan
62800;BME280;48842;51.046;13.796;2023-06-01T12:35:20;100321.28;;;25.66;nan
62800;BME280;48842;51.046;13.796;2023-06-01T12:38:05;100319.00;;;25.74;nan
62800;BME280;48842;51.046;13.796;2023-06-01T12:40:31;100323.03;;;25.81;nan
62800;BME280;48842;51.046;13.796;2023-06-01T12:42:57;100313.75;;;25.87;nan
62800;BME280;48842;51.046;13.796;2023-06-01T12:45:22;100319.78;;;25.90;nan
62800;BME280;48842;51.046;13.796;2023-06-01T12:47:47;100315.28;;;26.07;nan
62800;BME280;48842;51.046;13.796;2023-06-01T12:50:13;100307.88;;;26.25;nan
62800;BME280;48842;51.046;13.796;2023-06-01T12:52:39;100316.44;;;26.32;nan
62800;BME280;48842;51.046;13.796;2023-06-01T12:55:05;100310.09;;;26.47;nan
62800;BME280;48842;51.046;13.796;2023-06-01T12:57:32;100313.56;;;26.49;nan
62800;BME280;48842;51.046;13.796;2023-06-01T12:59:57;100317.75;;;26.53;nan
62800;BME280;48842;51.046;13.796;2023-06-01T13:02:23;100313.25;;;26.54;nan
62800;BME280;48842;51.046;13.796;2023-06-01T13:04:49;100313.25;;;26.82;nan
62800;BME280;48842;51.046;13.796;2023-06-01T13:07:14;100302.28;;;27.13;nan
62800;BME280;48842;51.046;13.796;2023-06-01T13:09:40;100301.50;;;27.65;nan
62800;BME280;48842;51.046;13.796;2023-06-01T13:12:06;100301.09;;;28.75;nan
62800;BME280;48842;51.046;13.796;2023-06-01T13:14:31;100294.75;;;30.42;nan
62800;BME280;48842;51.046;13.796;2023-06-01T13:16:56;100293.75;;;32.16;nan
62800;BME280;48842;51.046;13.796;2023-06-01T13:19:22;100284.06;;;33.83;nan
62800;BME280;48842;51.046;13.796;2023-06-01T13:21:50;100276.50;;;35.26;nan
62800;BME280;48842;51.046;13.796;2023-06-01T13:24:15;100289.50;;;36.21;nan
62800;BME280;48842;51.046;13.796;2023-06-01T13:26:41;100287.28;;;37.10;nan
62800;BME280;48842;51.046;13.796;2023-06-01T13:29:07;100267.84;;;37.87;nan
62800;BME280;48842;51.046;13.796;2023-06-01T13:31:33;100283.25;;;38.44;nan
62800;BME280;48842;51.046;13.796;2023-06-01T13:34:00;100275.50;;;39.10;nan